Thunder radar more information blitzortung!


Radar de pluja more information rain snow radar


Visita la nostra xarxa de llocs de meteo:

Template documentation
and downloads

And another site



No particular awareness of the weather is required.    There are no Weather-warnings

Pagina Historial Weather Underground text

Diari Resum Desembre 6, 2017 Unitats:  Tant    Imperial   Mètric
« Previous Dia
SegĂźent Dia »
Diari Setmana Mensual Anual Personalitzada
  Maxima: Minima: Media:
Temperatura: 57.2 °F /  14.0 °C 31.3 °F /  -0.4 °C 44.1 °F /  6.7 °C
Punt de rosada: 40.5 °F /  4.7 °C 21.6 °F /  -5.8 °C 32 °F /  -0 °C
Humitat: 75 % 52 % 63 %
Wind Speed: 6.9 mph /  11.1 km/h - 1.7 mph /  2.7 km/h
RĂ fegues de vent: 6.9 mph /  11.1 km/h - -
Vent:- - South
Pression baro: 30.6 in /  1034.8 hPa 30.4 in /  1030.0 hPa -
Precipitacions: 0 in /  0.0 mm    
Historical Graphs
 
 
Dades de taula per Desembre 6, 2017
Temps Temperatura Punt de rosada Pression baro Vent Wind Speed RĂ fegues de vent Humitat Rainfall Rate (Hourly)
00:01 36.9 °F /  2.7 °C 23.4 °F /  -4.8 °C 30.6 in /  1034.8 hPa Calm     58 % 0 in /  0.0 mm
00:05 32.2 °F /  0.1 °C 22.1 °F /  -5.5 °C 30.5 in /  1033.7 hPa Calm   2 mph /  3.2 km/h 66 % 0 in /  0.0 mm
00:06 36.7 °F /  2.6 °C 23.7 °F /  -4.6 °C 30.6 in /  1034.8 hPa Calm     59 % 0 in /  0.0 mm
00:11 36.7 °F /  2.6 °C 23.7 °F /  -4.6 °C 30.6 in /  1034.8 hPa Calm     59 % 0 in /  0.0 mm
00:15 32 °F /  0.0 °C 21.6 °F /  -5.8 °C 30.5 in /  1033.7 hPa WSW 1 mph /  1.6 km/h 2 mph /  3.2 km/h 65 % 0 in /  0.0 mm
00:25 32 °F /  0.0 °C 21.9 °F /  -5.6 °C 30.5 in /  1033.7 hPa WSW 1 mph /  1.6 km/h 2 mph /  3.2 km/h 66 % 0 in /  0.0 mm
00:35 32 °F /  0.0 °C 21.9 °F /  -5.6 °C 30.5 in /  1033.7 hPa WSW 1 mph /  1.6 km/h 2 mph /  3.2 km/h 66 % 0 in /  0.0 mm
00:45 32 °F /  0.0 °C 21.9 °F /  -5.6 °C 30.5 in /  1033.7 hPa WSW 1 mph /  1.6 km/h 2 mph /  3.2 km/h 66 % 0 in /  0.0 mm
00:55 32 °F /  0.0 °C 22.3 °F /  -5.4 °C 30.6 in /  1034.8 hPa Calm   1 mph /  1.6 km/h 67 % 0 in /  0.0 mm
01:05 32 °F /  0.0 °C 22.3 °F /  -5.4 °C 30.6 in /  1034.8 hPa Calm   1 mph /  1.6 km/h 67 % 0 in /  0.0 mm
01:15 31.8 °F /  -0.1 °C 22.1 °F /  -5.5 °C 30.6 in /  1034.8 hPa Calm     67 % 0 in /  0.0 mm
01:25 31.8 °F /  -0.1 °C 22.1 °F /  -5.5 °C 30.6 in /  1034.8 hPa Calm     67 % 0 in /  0.0 mm
01:35 31.8 °F /  -0.1 °C 22.5 °F /  -5.3 °C 30.6 in /  1034.8 hPa Calm     68 % 0 in /  0.0 mm
01:45 31.6 °F /  -0.2 °C 21.9 °F /  -5.6 °C 30.6 in /  1034.8 hPa SW 1 mph /  1.6 km/h 2 mph /  3.2 km/h 67 % 0 in /  0.0 mm
01:55 31.3 °F /  -0.4 °C 21.6 °F /  -5.8 °C 30.6 in /  1034.8 hPa Calm   2 mph /  3.2 km/h 67 % 0 in /  0.0 mm
02:05 31.5 °F /  -0.3 °C 22.1 °F /  -5.5 °C 30.6 in /  1034.8 hPa Calm     68 % 0 in /  0.0 mm
02:15 31.3 °F /  -0.4 °C 21.9 °F /  -5.6 °C 30.6 in /  1034.8 hPa Calm   1 mph /  1.6 km/h 68 % 0 in /  0.0 mm
02:25 31.5 °F /  -0.3 °C 22.1 °F /  -5.5 °C 30.6 in /  1034.8 hPa Calm     68 % 0 in /  0.0 mm
02:35 32 °F /  0.0 °C 22.3 °F /  -5.4 °C 30.6 in /  1034.8 hPa West 1 mph /  1.6 km/h 2 mph /  3.2 km/h 67 % 0 in /  0.0 mm
02:45 32.2 °F /  0.1 °C 22.8 °F /  -5.1 °C 30.6 in /  1034.8 hPa WSW 1 mph /  1.6 km/h 2 mph /  3.2 km/h 68 % 0 in /  0.0 mm
02:55 32.7 °F /  0.4 °C 23 °F /  -5.0 °C 30.6 in /  1034.8 hPa WSW 1 mph /  1.6 km/h 2 mph /  3.2 km/h 67 % 0 in /  0.0 mm
03:05 33.4 °F /  0.8 °C 23.7 °F /  -4.6 °C 30.6 in /  1034.8 hPa SW 1 mph /  1.6 km/h 2 mph /  3.2 km/h 67 % 0 in /  0.0 mm
03:15 35.2 °F /  1.8 °C 25.7 °F /  -3.5 °C 30.6 in /  1034.8 hPa Calm     68 % 0 in /  0.0 mm
03:25 36.5 °F /  2.5 °C 26.6 °F /  -3.0 °C 30.6 in /  1034.8 hPa Calm   1 mph /  1.6 km/h 67 % 0 in /  0.0 mm
03:35 37.4 °F /  3.0 °C 27.1 °F /  -2.7 °C 30.6 in /  1034.8 hPa Calm     66 % 0 in /  0.0 mm
03:55 38.8 °F /  3.8 °C 27.7 °F /  -2.4 °C 30.6 in /  1034.8 hPa Calm   2 mph /  3.2 km/h 64 % 0 in /  0.0 mm
04:05 38.3 °F /  3.5 °C 26.8 °F /  -2.9 °C 30.6 in /  1034.8 hPa ESE 1 mph /  1.6 km/h 2 mph /  3.2 km/h 63 % 0 in /  0.0 mm
04:15 39.4 °F /  4.1 °C 27.9 °F /  -2.3 °C 30.6 in /  1034.8 hPa East 1 mph /  1.6 km/h 2 mph /  3.2 km/h 63 % 0 in /  0.0 mm
04:35 40.5 °F /  4.7 °C 28.6 °F /  -1.9 °C 30.6 in /  1034.8 hPa SSE 1 mph /  1.6 km/h 2 mph /  3.2 km/h 62 % 0 in /  0.0 mm
04:45 40.8 °F /  4.9 °C 28.4 °F /  -2.0 °C 30.6 in /  1034.8 hPa ESE 2 mph /  3.2 km/h 2 mph /  3.2 km/h 61 % 0 in /  0.0 mm
04:55 41.2 °F /  5.1 °C 27.9 °F /  -2.3 °C 30.6 in /  1034.8 hPa ENE 2 mph /  3.2 km/h 3 mph /  4.8 km/h 59 % 0 in /  0.0 mm
05:05 41.9 °F /  5.5 °C 28.2 °F /  -2.1 °C 30.6 in /  1034.8 hPa ENE 1 mph /  1.6 km/h 2 mph /  3.2 km/h 58 % 0 in /  0.0 mm
11:08 42.3 °F /  5.7 °C 28.6 °F /  -1.9 °C 30.6 in /  1034.8 hPa NNW 2 mph /  3.2 km/h 2 mph /  3.2 km/h 58 % 0 in /  0.0 mm
11:13 42.8 °F /  6.0 °C 28.9 °F /  -1.7 °C 30.6 in /  1034.8 hPa NE 2.3 mph /  3.7 km/h 2.3 mph /  3.7 km/h 58 % 0 in /  0.0 mm
11:18 43 °F /  6.1 °C 28.8 °F /  -1.8 °C 30.6 in /  1034.8 hPa NE 4.6 mph /  7.4 km/h 4.6 mph /  7.4 km/h 57 % 0 in /  0.0 mm
11:19 43 °F /  6.1 °C 28.8 °F /  -1.8 °C 30.6 in /  1034.8 hPa NE 3.5 mph /  5.6 km/h 3.5 mph /  5.6 km/h 57 % 0 in /  0.0 mm
11:24 43.2 °F /  6.2 °C 28.9 °F /  -1.7 °C 30.6 in /  1034.8 hPa ENE 2.6 mph /  4.2 km/h 2.6 mph /  4.2 km/h 57 % 0 in /  0.0 mm
11:29 43.5 °F /  6.4 °C 28.8 °F /  -1.8 °C 30.6 in /  1034.8 hPa NE 2.6 mph /  4.2 km/h 2.6 mph /  4.2 km/h 56 % 0 in /  0.0 mm
11:34 43.9 °F /  6.6 °C 29.1 °F /  -1.6 °C 30.6 in /  1034.8 hPa ENE 2.3 mph /  3.7 km/h 2.3 mph /  3.7 km/h 56 % 0 in /  0.0 mm
11:39 44.4 °F /  6.9 °C 29.7 °F /  -1.3 °C 30.6 in /  1034.8 hPa ENE 2.6 mph /  4.2 km/h 2.6 mph /  4.2 km/h 56 % 0 in /  0.0 mm
11:44 45 °F /  7.2 °C 30.2 °F /  -1.0 °C 30.5 in /  1033.7 hPa East 2.3 mph /  3.7 km/h 2.3 mph /  3.7 km/h 56 % 0 in /  0.0 mm
11:49 45.1 °F /  7.3 °C 30.4 °F /  -0.9 °C 30.5 in /  1033.7 hPa NNE 2.3 mph /  3.7 km/h 2.3 mph /  3.7 km/h 56 % 0 in /  0.0 mm
11:59 45.9 °F /  7.7 °C 30.6 °F /  -0.8 °C 30.5 in /  1033.7 hPa East 2.3 mph /  3.7 km/h 2.3 mph /  3.7 km/h 55 % 0 in /  0.0 mm
12:04 46.6 °F /  8.1 °C 31.3 °F /  -0.4 °C 30.5 in /  1033.7 hPa ENE 1.6 mph /  2.6 km/h 1.6 mph /  2.6 km/h 55 % 0 in /  0.0 mm
12:09 46.8 °F /  8.2 °C 31.5 °F /  -0.3 °C 30.5 in /  1033.7 hPa ENE 2.3 mph /  3.7 km/h 2.3 mph /  3.7 km/h 55 % 0 in /  0.0 mm
12:14 46.8 °F /  8.2 °C 30.9 °F /  -0.6 °C 30.5 in /  1033.7 hPa East 2.3 mph /  3.7 km/h 2.3 mph /  3.7 km/h 54 % 0 in /  0.0 mm
12:19 47.3 °F /  8.5 °C 31.5 °F /  -0.3 °C 30.5 in /  1033.7 hPa ENE 2.3 mph /  3.7 km/h 2.3 mph /  3.7 km/h 54 % 0 in /  0.0 mm
12:24 47.7 °F /  8.7 °C 31.8 °F /  -0.1 °C 30.5 in /  1033.7 hPa NNW 1.2 mph /  1.9 km/h 1.2 mph /  1.9 km/h 54 % 0 in /  0.0 mm
12:29 47.7 °F /  8.7 °C 31.5 °F /  -0.3 °C 30.5 in /  1033.7 hPa NE 3.5 mph /  5.6 km/h 3.5 mph /  5.6 km/h 53 % 0 in /  0.0 mm
12:34 47.8 °F /  8.8 °C 31.5 °F /  -0.3 °C 30.5 in /  1033.7 hPa NE 2.3 mph /  3.7 km/h 2.3 mph /  3.7 km/h 53 % 0 in /  0.0 mm
12:39 48.6 °F /  9.2 °C 32.2 °F /  0.1 °C 30.5 in /  1033.7 hPa NNW 2.3 mph /  3.7 km/h 2.3 mph /  3.7 km/h 53 % 0 in /  0.0 mm
12:44 48.7 °F /  9.3 °C 32.4 °F /  0.2 °C 30.5 in /  1033.7 hPa NNE 2.4 mph /  3.9 km/h 2.4 mph /  3.9 km/h 53 % 0 in /  0.0 mm
12:49 49.1 °F /  9.5 °C 32.7 °F /  0.4 °C 30.5 in /  1033.7 hPa ENE 2.3 mph /  3.7 km/h 2.3 mph /  3.7 km/h 53 % 0 in /  0.0 mm
12:54 49.3 °F /  9.6 °C 32.9 °F /  0.5 °C 30.5 in /  1033.7 hPa NE 1.6 mph /  2.6 km/h 1.6 mph /  2.6 km/h 53 % 0 in /  0.0 mm
12:59 49.6 °F /  9.8 °C 33.3 °F /  0.7 °C 30.5 in /  1032.7 hPa ENE 2.3 mph /  3.7 km/h 2.3 mph /  3.7 km/h 53 % 0 in /  0.0 mm
13:04 50 °F /  10.0 °C 33.4 °F /  0.8 °C 30.5 in /  1032.7 hPa NE 4.6 mph /  7.4 km/h 4.6 mph /  7.4 km/h 53 % 0 in /  0.0 mm
13:09 50.5 °F /  10.3 °C 34 °F /  1.1 °C 30.5 in /  1032.7 hPa NNE 3.5 mph /  5.6 km/h 3.5 mph /  5.6 km/h 53 % 0 in /  0.0 mm
13:14 50.7 °F /  10.4 °C 34.2 °F /  1.2 °C 30.5 in /  1032.7 hPa ENE 2.3 mph /  3.7 km/h 2.3 mph /  3.7 km/h 53 % 0 in /  0.0 mm
13:19 51.3 °F /  10.7 °C 34.2 °F /  1.2 °C 30.5 in /  1032.7 hPa ENE 2.3 mph /  3.7 km/h 2.3 mph /  3.7 km/h 52 % 0 in /  0.0 mm
13:24 51.3 °F /  10.7 °C 34.2 °F /  1.2 °C 30.5 in /  1032.7 hPa ENE 3.1 mph /  5.0 km/h 3.1 mph /  5.0 km/h 52 % 0 in /  0.0 mm
13:29 51.3 °F /  10.7 °C 34.2 °F /  1.2 °C 30.5 in /  1032.1 hPa SE 2.3 mph /  3.7 km/h 2.3 mph /  3.7 km/h 52 % 0 in /  0.0 mm
13:34 51.8 °F /  11.0 °C 35.2 °F /  1.8 °C 30.5 in /  1032.1 hPa NNW 2.3 mph /  3.7 km/h 2.3 mph /  3.7 km/h 53 % 0 in /  0.0 mm
13:44 52 °F /  11.1 °C 35.4 °F /  1.9 °C 30.5 in /  1032.1 hPa North 2.4 mph /  3.9 km/h 2.4 mph /  3.9 km/h 53 % 0 in /  0.0 mm
13:49 52.2 °F /  11.2 °C 35.1 °F /  1.7 °C 30.5 in /  1032.1 hPa NNE 2.3 mph /  3.7 km/h 2.3 mph /  3.7 km/h 52 % 0 in /  0.0 mm
13:54 52.5 °F /  11.4 °C 35.4 °F /  1.9 °C 30.5 in /  1032.1 hPa NNE 2.3 mph /  3.7 km/h 2.3 mph /  3.7 km/h 52 % 0 in /  0.0 mm
13:59 52.5 °F /  11.4 °C 35.4 °F /  1.9 °C 30.5 in /  1032.1 hPa NNW 1.2 mph /  1.9 km/h   52 % 0 in /  0.0 mm
14:04 52.9 °F /  11.6 °C 36.1 °F /  2.3 °C 30.5 in /  1032.1 hPa ESE 2.3 mph /  3.7 km/h 2.3 mph /  3.7 km/h 53 % 0 in /  0.0 mm
14:09 53.4 °F /  11.9 °C 37.2 °F /  2.9 °C 30.5 in /  1032.1 hPa SW 3.3 mph /  5.3 km/h   54 % 0 in /  0.0 mm
14:14 53.6 °F /  12.0 °C 37.2 °F /  2.9 °C 30.5 in /  1032.1 hPa WSW 4.6 mph /  7.4 km/h 4.6 mph /  7.4 km/h 54 % 0 in /  0.0 mm
14:19 54 °F /  12.2 °C 37.8 °F /  3.2 °C 30.5 in /  1032.1 hPa SSW 3.5 mph /  5.6 km/h 3.5 mph /  5.6 km/h 54 % 0 in /  0.0 mm
14:24 54.1 °F /  12.3 °C 37.8 °F /  3.2 °C 30.5 in /  1032.1 hPa WSW 2.3 mph /  3.7 km/h 2.3 mph /  3.7 km/h 54 % 0 in /  0.0 mm
14:29 54.5 °F /  12.5 °C 38.1 °F /  3.4 °C 30.5 in /  1032.1 hPa NW 4.6 mph /  7.4 km/h 4.6 mph /  7.4 km/h 54 % 0 in /  0.0 mm
14:34 54.7 °F /  12.6 °C 38.5 °F /  3.6 °C 30.5 in /  1032.1 hPa WSW 4.6 mph /  7.4 km/h 4.6 mph /  7.4 km/h 54 % 0 in /  0.0 mm
14:39 55 °F /  12.8 °C 38.7 °F /  3.7 °C 30.5 in /  1032.1 hPa NW 3.5 mph /  5.6 km/h 3.5 mph /  5.6 km/h 54 % 0 in /  0.0 mm
14:44 55 °F /  12.8 °C 38.7 °F /  3.7 °C 30.5 in /  1032.1 hPa SSE 2.3 mph /  3.7 km/h 2.9 mph /  4.7 km/h 54 % 0 in /  0.0 mm
14:49 55.2 °F /  12.9 °C 38.8 °F /  3.8 °C 30.5 in /  1032.1 hPa SSW 5.6 mph /  9.0 km/h 5.6 mph /  9.0 km/h 54 % 0 in /  0.0 mm
14:54 55 °F /  12.8 °C 38.1 °F /  3.4 °C 30.5 in /  1032.1 hPa SW 2.3 mph /  3.7 km/h 2.3 mph /  3.7 km/h 53 % 0 in /  0.0 mm
14:59 54.9 °F /  12.7 °C 37.9 °F /  3.3 °C 30.5 in /  1032.1 hPa ENE 2.3 mph /  3.7 km/h 2.9 mph /  4.7 km/h 53 % 0 in /  0.0 mm
15:04 55.2 °F /  12.9 °C 38.5 °F /  3.6 °C 30.5 in /  1032.1 hPa ESE 3.6 mph /  5.8 km/h 3.6 mph /  5.8 km/h 53 % 0 in /  0.0 mm
15:09 54.9 °F /  12.7 °C 37.9 °F /  3.3 °C 30.5 in /  1032.1 hPa NE 2.3 mph /  3.7 km/h 2.3 mph /  3.7 km/h 53 % 0 in /  0.0 mm
15:14 55.9 °F /  13.3 °C 39 °F /  3.9 °C 30.5 in /  1032.1 hPa WNW 3.5 mph /  5.6 km/h 3.5 mph /  5.6 km/h 53 % 0 in /  0.0 mm
15:19 56.5 °F /  13.6 °C 39.6 °F /  4.2 °C 30.5 in /  1032.1 hPa West 5.8 mph /  9.3 km/h 5.8 mph /  9.3 km/h 53 % 0 in /  0.0 mm
15:24 57 °F /  13.9 °C 39.9 °F /  4.4 °C 30.5 in /  1032.1 hPa SSW 5.8 mph /  9.3 km/h 5.8 mph /  9.3 km/h 53 % 0 in /  0.0 mm
15:29 57.2 °F /  14.0 °C 40.3 °F /  4.6 °C 30.5 in /  1032.1 hPa SSW 4.6 mph /  7.4 km/h 4.6 mph /  7.4 km/h 53 % 0 in /  0.0 mm
15:34 57.2 °F /  14.0 °C 40.3 °F /  4.6 °C 30.5 in /  1032.1 hPa South 4.6 mph /  7.4 km/h 4.6 mph /  7.4 km/h 53 % 0 in /  0.0 mm
15:39 57.2 °F /  14.0 °C 40.3 °F /  4.6 °C 30.5 in /  1032.1 hPa SSW 3.6 mph /  5.8 km/h 3.6 mph /  5.8 km/h 53 % 0 in /  0.0 mm
15:44 56.8 °F /  13.8 °C 39.9 °F /  4.4 °C 30.4 in /  1030.7 hPa SSW 6.9 mph /  11.1 km/h 6.9 mph /  11.1 km/h 53 % 0 in /  0.0 mm
15:49 56.7 °F /  13.7 °C 39.7 °F /  4.3 °C 30.4 in /  1030.7 hPa SW 5.8 mph /  9.3 km/h 5.8 mph /  9.3 km/h 53 % 0 in /  0.0 mm
15:54 56.8 °F /  13.8 °C 40.5 °F /  4.7 °C 30.4 in /  1030.7 hPa SSW 4.6 mph /  7.4 km/h 4.6 mph /  7.4 km/h 54 % 0 in /  0.0 mm
15:59 56.8 °F /  13.8 °C 40.5 °F /  4.7 °C 30.4 in /  1030.7 hPa SSW 2.3 mph /  3.7 km/h 2.3 mph /  3.7 km/h 54 % 0 in /  0.0 mm
16:04 56.8 °F /  13.8 °C 40.5 °F /  4.7 °C 30.4 in /  1030.7 hPa WSW 4.6 mph /  7.4 km/h 4.6 mph /  7.4 km/h 54 % 0 in /  0.0 mm
16:09 56.7 °F /  13.7 °C 40.3 °F /  4.6 °C 30.4 in /  1030.7 hPa SW 4.7 mph /  7.6 km/h 4.7 mph /  7.6 km/h 54 % 0 in /  0.0 mm
16:14 56.5 °F /  13.6 °C 39.9 °F /  4.4 °C 30.4 in /  1030.7 hPa SW 4.6 mph /  7.4 km/h 4.6 mph /  7.4 km/h 54 % 0 in /  0.0 mm
16:19 56.3 °F /  13.5 °C 39.4 °F /  4.1 °C 30.4 in /  1030.7 hPa South 5.8 mph /  9.3 km/h 5.8 mph /  9.3 km/h 53 % 0 in /  0.0 mm
16:24 55.9 °F /  13.3 °C 39 °F /  3.9 °C 30.4 in /  1030.7 hPa WSW 5.8 mph /  9.3 km/h 5.8 mph /  9.3 km/h 53 % 0 in /  0.0 mm
16:29 55.9 °F /  13.3 °C 39 °F /  3.9 °C 30.4 in /  1030.7 hPa SW 3.5 mph /  5.6 km/h 3.5 mph /  5.6 km/h 53 % 0 in /  0.0 mm
16:34 55.8 °F /  13.2 °C 39.4 °F /  4.1 °C 30.4 in /  1030.7 hPa SW 3.5 mph /  5.6 km/h 3.5 mph /  5.6 km/h 54 % 0 in /  0.0 mm
16:39 55.6 °F /  13.1 °C 39.2 °F /  4.0 °C 30.4 in /  1030.7 hPa SSW 5.8 mph /  9.3 km/h 5.8 mph /  9.3 km/h 54 % 0 in /  0.0 mm
16:44 55.4 °F /  13.0 °C 39 °F /  3.9 °C 30.4 in /  1030.7 hPa SW 3.5 mph /  5.6 km/h 3.5 mph /  5.6 km/h 54 % 0 in /  0.0 mm
16:49 55.2 °F /  12.9 °C 38.8 °F /  3.8 °C 30.4 in /  1030.7 hPa SSW 3.5 mph /  5.6 km/h 3.5 mph /  5.6 km/h 54 % 0 in /  0.0 mm
16:54 54.9 °F /  12.7 °C 38.5 °F /  3.6 °C 30.4 in /  1030.7 hPa WSW 3.5 mph /  5.6 km/h 3.5 mph /  5.6 km/h 54 % 0 in /  0.0 mm
16:59 54.7 °F /  12.6 °C 38.5 °F /  3.6 °C 30.4 in /  1030.7 hPa SW 5.8 mph /  9.3 km/h 5.8 mph /  9.3 km/h 54 % 0 in /  0.0 mm
17:04 54.1 °F /  12.3 °C 37.8 °F /  3.2 °C 30.4 in /  1030.7 hPa SSW 4.3 mph /  6.9 km/h 4.3 mph /  6.9 km/h 54 % 0 in /  0.0 mm
17:09 53.8 °F /  12.1 °C 37.6 °F /  3.1 °C 30.4 in /  1030.7 hPa SW 4.6 mph /  7.4 km/h 4.6 mph /  7.4 km/h 54 % 0 in /  0.0 mm
17:14 53.2 °F /  11.8 °C 37 °F /  2.8 °C 30.4 in /  1030.7 hPa West 3.5 mph /  5.6 km/h 3.5 mph /  5.6 km/h 54 % 0 in /  0.0 mm
17:19 53.1 °F /  11.7 °C 36.9 °F /  2.7 °C 30.4 in /  1030.7 hPa SSW 2.6 mph /  4.2 km/h 2.6 mph /  4.2 km/h 54 % 0 in /  0.0 mm
17:24 52.7 °F /  11.5 °C 36.5 °F /  2.5 °C 30.4 in /  1030.7 hPa WSW 2.3 mph /  3.7 km/h 2.3 mph /  3.7 km/h 54 % 0 in /  0.0 mm
17:29 52.3 °F /  11.3 °C 36.7 °F /  2.6 °C 30.4 in /  1030.7 hPa SW 4.6 mph /  7.4 km/h 4.6 mph /  7.4 km/h 55 % 0 in /  0.0 mm
17:34 52 °F /  11.1 °C 36.3 °F /  2.4 °C 30.4 in /  1030.7 hPa WSW 2.3 mph /  3.7 km/h 2.3 mph /  3.7 km/h 55 % 0 in /  0.0 mm
17:39 51.6 °F /  10.9 °C 36 °F /  2.2 °C 30.4 in /  1030.7 hPa SW 3.5 mph /  5.6 km/h 3.5 mph /  5.6 km/h 55 % 0 in /  0.0 mm
17:44 51.4 °F /  10.8 °C 35.8 °F /  2.1 °C 30.4 in /  1030.7 hPa SW 2.3 mph /  3.7 km/h 2.3 mph /  3.7 km/h 55 % 0 in /  0.0 mm
17:49 51.1 °F /  10.6 °C 36 °F /  2.2 °C 30.4 in /  1030.7 hPa WSW 2.3 mph /  3.7 km/h 2.3 mph /  3.7 km/h 56 % 0 in /  0.0 mm
17:54 50.7 °F /  10.4 °C 35.6 °F /  2.0 °C 30.4 in /  1030.7 hPa West 1.2 mph /  1.9 km/h 1.2 mph /  1.9 km/h 56 % 0 in /  0.0 mm
17:59 50.5 °F /  10.3 °C 36 °F /  2.2 °C 30.4 in /  1030.7 hPa WSW 1.2 mph /  1.9 km/h 1.2 mph /  1.9 km/h 57 % 0 in /  0.0 mm
18:04 50.2 °F /  10.1 °C 35.4 °F /  1.9 °C 30.4 in /  1030.7 hPa WSW 1.6 mph /  2.6 km/h 1.6 mph /  2.6 km/h 57 % 0 in /  0.0 mm
18:09 50 °F /  10.0 °C 35.8 °F /  2.1 °C 30.4 in /  1030.7 hPa WSW 1.2 mph /  1.9 km/h 1.4 mph /  2.3 km/h 58 % 0 in /  0.0 mm
18:15 37.2 °F /  2.9 °C 28.8 °F /  -1.8 °C 30.5 in /  1032.1 hPa Calm   1 mph /  1.6 km/h 71 % 0 in /  0.0 mm
18:19 49.5 °F /  9.7 °C 35.8 °F /  2.1 °C 30.4 in /  1030.7 hPa WSW 1.2 mph /  1.9 km/h   59 % 0 in /  0.0 mm
18:24 49.1 °F /  9.5 °C 35.8 °F /  2.1 °C 30.4 in /  1030.7 hPa WSW 1.2 mph /  1.9 km/h   60 % 0 in /  0.0 mm
18:25 37 °F /  2.8 °C 28.6 °F /  -1.9 °C 30.5 in /  1032.1 hPa NNE 1 mph /  1.6 km/h 1 mph /  1.6 km/h 71 % 0 in /  0.0 mm
18:29 48.9 °F /  9.4 °C 35.6 °F /  2.0 °C 30.4 in /  1030.7 hPa WSW 1.2 mph /  1.9 km/h   60 % 0 in /  0.0 mm
18:34 48.6 °F /  9.2 °C 35.8 °F /  2.1 °C 30.4 in /  1030.7 hPa Calm     61 % 0 in /  0.0 mm
18:35 37 °F /  2.8 °C 28.8 °F /  -1.8 °C 30.5 in /  1032.7 hPa NNE 1 mph /  1.6 km/h 2 mph /  3.2 km/h 72 % 0 in /  0.0 mm
18:39 48.4 °F /  9.1 °C 36 °F /  2.2 °C 30.4 in /  1030.7 hPa West 1.2 mph /  1.9 km/h 1.2 mph /  1.9 km/h 62 % 0 in /  0.0 mm
18:44 48.2 °F /  9.0 °C 35.8 °F /  2.1 °C 30.4 in /  1030.7 hPa WSW 1.6 mph /  2.6 km/h 1.6 mph /  2.6 km/h 62 % 0 in /  0.0 mm
18:45 36.9 °F /  2.7 °C 28.8 °F /  -1.8 °C 30.5 in /  1032.7 hPa Calm   2 mph /  3.2 km/h 72 % 0 in /  0.0 mm
18:49 48 °F /  8.9 °C 36 °F /  2.2 °C 30.4 in /  1030.7 hPa Calm     63 % 0 in /  0.0 mm
18:54 47.7 °F /  8.7 °C 35.8 °F /  2.1 °C 30.4 in /  1030.7 hPa WSW 2.3 mph /  3.7 km/h 2.3 mph /  3.7 km/h 63 % 0 in /  0.0 mm
18:55 36.7 °F /  2.6 °C 28.6 °F /  -1.9 °C 30.5 in /  1032.1 hPa Calm     72 % 0 in /  0.0 mm
18:59 47.8 °F /  8.8 °C 36.1 °F /  2.3 °C 30.4 in /  1030.7 hPa SW 2.3 mph /  3.7 km/h 2.3 mph /  3.7 km/h 64 % 0 in /  0.0 mm
19:04 47.7 °F /  8.7 °C 36.1 °F /  2.3 °C 30.4 in /  1030.7 hPa WSW 2.2 mph /  3.5 km/h 2.2 mph /  3.5 km/h 64 % 0 in /  0.0 mm
19:05 36.1 °F /  2.3 °C 27.7 °F /  -2.4 °C 30.5 in /  1032.1 hPa NNW 1 mph /  1.6 km/h 2 mph /  3.2 km/h 71 % 0 in /  0.0 mm
19:09 47.7 °F /  8.7 °C 36.1 °F /  2.3 °C 30.4 in /  1030.7 hPa SW 1.2 mph /  1.9 km/h 1.2 mph /  1.9 km/h 64 % 0 in /  0.0 mm
19:14 47.7 °F /  8.7 °C 36.1 °F /  2.3 °C 30.4 in /  1030.7 hPa SW 2.3 mph /  3.7 km/h 2.3 mph /  3.7 km/h 64 % 0 in /  0.0 mm
19:15 36 °F /  2.2 °C 27.5 °F /  -2.5 °C 30.5 in /  1032.1 hPa Calm   1 mph /  1.6 km/h 71 % 0 in /  0.0 mm
19:19 47.5 °F /  8.6 °C 36.3 °F /  2.4 °C 30.4 in /  1030.7 hPa WSW 1.2 mph /  1.9 km/h 1.2 mph /  1.9 km/h 65 % 0 in /  0.0 mm
19:24 47.3 °F /  8.5 °C 36.1 °F /  2.3 °C 30.4 in /  1030.7 hPa WSW 2.3 mph /  3.7 km/h 2.3 mph /  3.7 km/h 65 % 0 in /  0.0 mm
19:25 36 °F /  2.2 °C 27.5 °F /  -2.5 °C 30.4 in /  1030.7 hPa WNW 1 mph /  1.6 km/h 2 mph /  3.2 km/h 71 % 0 in /  0.0 mm
19:29 47.3 °F /  8.5 °C 36.1 °F /  2.3 °C 30.5 in /  1032.1 hPa WSW 1.2 mph /  1.9 km/h 1.2 mph /  1.9 km/h 65 % 0 in /  0.0 mm
19:34 47.1 °F /  8.4 °C 36.3 °F /  2.4 °C 30.5 in /  1032.1 hPa Calm     66 % 0 in /  0.0 mm
19:35 36 °F /  2.2 °C 27.9 °F /  -2.3 °C 30.5 in /  1032.1 hPa Calm   2 mph /  3.2 km/h 72 % 0 in /  0.0 mm
19:39 46.9 °F /  8.3 °C 36.1 °F /  2.3 °C 30.5 in /  1032.1 hPa West 1.4 mph /  2.3 km/h 1.4 mph /  2.3 km/h 66 % 0 in /  0.0 mm
19:44 46.8 °F /  8.2 °C 36.3 °F /  2.4 °C 30.5 in /  1032.1 hPa Calm     67 % 0 in /  0.0 mm
19:45 36 °F /  2.2 °C 27.9 °F /  -2.3 °C 30.5 in /  1032.1 hPa WSW 1 mph /  1.6 km/h 2 mph /  3.2 km/h 72 % 0 in /  0.0 mm
19:49 46.6 °F /  8.1 °C 36.1 °F /  2.3 °C 30.5 in /  1032.1 hPa SW 1.2 mph /  1.9 km/h 1.2 mph /  1.9 km/h 67 % 0 in /  0.0 mm
19:54 46.4 °F /  8.0 °C 36 °F /  2.2 °C 30.5 in /  1032.1 hPa WSW 1.2 mph /  1.9 km/h 1.2 mph /  1.9 km/h 67 % 0 in /  0.0 mm
19:55 35.8 °F /  2.1 °C 27.7 °F /  -2.4 °C 30.4 in /  1030.7 hPa Calm   1 mph /  1.6 km/h 72 % 0 in /  0.0 mm
19:59 46.4 °F /  8.0 °C 36 °F /  2.2 °C 30.5 in /  1032.1 hPa West 1.6 mph /  2.6 km/h 1.6 mph /  2.6 km/h 67 % 0 in /  0.0 mm
20:04 46.2 °F /  7.9 °C 36 °F /  2.2 °C 30.5 in /  1032.1 hPa West 2.3 mph /  3.7 km/h 2.3 mph /  3.7 km/h 67 % 0 in /  0.0 mm
20:05 36 °F /  2.2 °C 27.9 °F /  -2.3 °C 30.4 in /  1030.7 hPa Calm     72 % 0 in /  0.0 mm
20:09 45.9 °F /  7.7 °C 34.9 °F /  1.6 °C 30.5 in /  1032.1 hPa West 2.4 mph /  3.9 km/h 2.6 mph /  4.2 km/h 65 % 0 in /  0.0 mm
20:14 45.9 °F /  7.7 °C 34.9 °F /  1.6 °C 30.5 in /  1032.1 hPa WSW 2.3 mph /  3.7 km/h 2.3 mph /  3.7 km/h 65 % 0 in /  0.0 mm
20:15 36 °F /  2.2 °C 27.5 °F /  -2.5 °C 30.4 in /  1030.7 hPa West 1 mph /  1.6 km/h 1 mph /  1.6 km/h 71 % 0 in /  0.0 mm
20:19 45.9 °F /  7.7 °C 34.9 °F /  1.6 °C 30.5 in /  1032.1 hPa West 1.2 mph /  1.9 km/h   65 % 0 in /  0.0 mm
20:24 45.5 °F /  7.5 °C 34.9 °F /  1.6 °C 30.5 in /  1032.1 hPa WSW 2.3 mph /  3.7 km/h   66 % 0 in /  0.0 mm
20:25 36 °F /  2.2 °C 27.9 °F /  -2.3 °C 30.4 in /  1030.7 hPa Calm     72 % 0 in /  0.0 mm
20:29 45.3 °F /  7.4 °C 34.5 °F /  1.4 °C 30.5 in /  1032.1 hPa Calm     66 % 0 in /  0.0 mm
20:34 45 °F /  7.2 °C 34.3 °F /  1.3 °C 30.5 in /  1032.1 hPa ENE 2 mph /  3.2 km/h 2 mph /  3.2 km/h 66 % 0 in /  0.0 mm
20:35 36 °F /  2.2 °C 28 °F /  -2.2 °C 30.4 in /  1030.7 hPa Calm     73 % 0 in /  0.0 mm
20:39 44.4 °F /  6.9 °C 34.2 °F /  1.2 °C 30.5 in /  1032.1 hPa Calm     67 % 0 in /  0.0 mm
20:44 43.9 °F /  6.6 °C 33.6 °F /  0.9 °C 30.5 in /  1032.1 hPa ENE 2.3 mph /  3.7 km/h 2.3 mph /  3.7 km/h 67 % 0 in /  0.0 mm
20:45 36.3 °F /  2.4 °C 28.6 °F /  -1.9 °C 30.4 in /  1030.7 hPa Calm     73 % 0 in /  0.0 mm
20:49 43.7 °F /  6.5 °C 33.4 °F /  0.8 °C 30.5 in /  1032.1 hPa Calm     67 % 0 in /  0.0 mm
20:54 43.7 °F /  6.5 °C 33.8 °F /  1.0 °C 30.5 in /  1032.1 hPa ENE 1.2 mph /  1.9 km/h 1.2 mph /  1.9 km/h 68 % 0 in /  0.0 mm
20:55 36.5 °F /  2.5 °C 28.9 °F /  -1.7 °C 30.4 in /  1030.7 hPa Calm   2 mph /  3.2 km/h 74 % 0 in /  0.0 mm
20:59 43.5 °F /  6.4 °C 33.6 °F /  0.9 °C 30.5 in /  1032.1 hPa ENE 2.3 mph /  3.7 km/h 2.3 mph /  3.7 km/h 68 % 0 in /  0.0 mm
21:04 43.3 °F /  6.3 °C 33.4 °F /  0.8 °C 30.5 in /  1032.1 hPa Calm     68 % 0 in /  0.0 mm
21:05 36.3 °F /  2.4 °C 28.6 °F /  -1.9 °C 30.4 in /  1030.7 hPa Calm   1 mph /  1.6 km/h 73 % 0 in /  0.0 mm
21:09 42.8 °F /  6.0 °C 33.1 °F /  0.6 °C 30.5 in /  1032.1 hPa WSW 2.4 mph /  3.9 km/h   68 % 0 in /  0.0 mm
21:14 42.4 °F /  5.8 °C 32.4 °F /  0.2 °C 30.5 in /  1032.1 hPa West 1.2 mph /  1.9 km/h   67 % 0 in /  0.0 mm
21:15 36.1 °F /  2.3 °C 28.6 °F /  -1.9 °C 30.4 in /  1030.7 hPa Calm     74 % 0 in /  0.0 mm
21:19 42.1 °F /  5.6 °C 31.8 °F /  -0.1 °C 30.5 in /  1032.1 hPa West 1.4 mph /  2.3 km/h 1.4 mph /  2.3 km/h 67 % 0 in /  0.0 mm
21:24 41.9 °F /  5.5 °C 31.6 °F /  -0.2 °C 30.5 in /  1032.1 hPa Calm     67 % 0 in /  0.0 mm
21:25 36 °F /  2.2 °C 28 °F /  -2.2 °C 30.4 in /  1030.7 hPa WNW 2 mph /  3.2 km/h 2 mph /  3.2 km/h 73 % 0 in /  0.0 mm
21:29 41.5 °F /  5.3 °C 31.8 °F /  -0.1 °C 30.5 in /  1032.1 hPa Calm     68 % 0 in /  0.0 mm
21:34 41.4 °F /  5.2 °C 31.3 °F /  -0.4 °C 30.5 in /  1032.1 hPa Calm     67 % 0 in /  0.0 mm
21:35 35.8 °F /  2.1 °C 28 °F /  -2.2 °C 30.4 in /  1030.7 hPa Calm   2 mph /  3.2 km/h 73 % 0 in /  0.0 mm
21:39 41 °F /  5.0 °C 30.9 °F /  -0.6 °C 30.5 in /  1032.1 hPa Calm     67 % 0 in /  0.0 mm
21:44 41 °F /  5.0 °C 30.9 °F /  -0.6 °C 30.5 in /  1032.1 hPa Calm     67 % 0 in /  0.0 mm
21:45 36.1 °F /  2.3 °C 28.2 °F /  -2.1 °C 30.4 in /  1030.7 hPa NW 1 mph /  1.6 km/h 1 mph /  1.6 km/h 73 % 0 in /  0.0 mm
21:49 41.2 °F /  5.1 °C 30.9 °F /  -0.6 °C 30.5 in /  1032.1 hPa West 1.2 mph /  1.9 km/h 1.2 mph /  1.9 km/h 67 % 0 in /  0.0 mm
21:51 41.2 °F /  5.1 °C 30.9 °F /  -0.6 °C 30.5 in /  1032.1 hPa West 1.2 mph /  1.9 km/h   67 % 0 in /  0.0 mm
21:55 36 °F /  2.2 °C 28.6 °F /  -1.9 °C 30.4 in /  1030.7 hPa Calm   1 mph /  1.6 km/h 74 % 0 in /  0.0 mm
21:56 41.2 °F /  5.1 °C 30.9 °F /  -0.6 °C 30.5 in /  1032.1 hPa Calm     67 % 0 in /  0.0 mm
22:01 41.4 °F /  5.2 °C 31.6 °F /  -0.2 °C 30.5 in /  1032.1 hPa Calm     68 % 0 in /  0.0 mm
22:05 35.8 °F /  2.1 °C 28.2 °F /  -2.1 °C 30.4 in /  1030.7 hPa Calm     74 % 0 in /  0.0 mm
22:06 41.4 °F /  5.2 °C 31.8 °F /  -0.1 °C 30.5 in /  1032.1 hPa WNW 1.6 mph /  2.6 km/h 1.6 mph /  2.6 km/h 69 % 0 in /  0.0 mm
22:11 41 °F /  5.0 °C 31.6 °F /  -0.2 °C 30.5 in /  1032.1 hPa ENE 2.3 mph /  3.7 km/h 2.3 mph /  3.7 km/h 69 % 0 in /  0.0 mm
22:15 35.8 °F /  2.1 °C 28.2 °F /  -2.1 °C 30.4 in /  1030.7 hPa Calm   1 mph /  1.6 km/h 74 % 0 in /  0.0 mm
22:16 40.8 °F /  4.9 °C 31.5 °F /  -0.3 °C 30.5 in /  1032.1 hPa ENE 1.6 mph /  2.6 km/h   69 % 0 in /  0.0 mm
22:21 40.5 °F /  4.7 °C 31.1 °F /  -0.5 °C 30.5 in /  1032.1 hPa Calm     69 % 0 in /  0.0 mm
22:25 35.6 °F /  2.0 °C 28 °F /  -2.2 °C 30.4 in /  1030.7 hPa Calm     74 % 0 in /  0.0 mm
22:26 40.5 °F /  4.7 °C 31.5 °F /  -0.3 °C 30.5 in /  1032.1 hPa ENE 1.4 mph /  2.3 km/h   70 % 0 in /  0.0 mm
22:31 40.3 °F /  4.6 °C 31.3 °F /  -0.4 °C 30.5 in /  1032.1 hPa Calm     70 % 0 in /  0.0 mm
22:35 35.2 °F /  1.8 °C 27.9 °F /  -2.3 °C 30.4 in /  1030.7 hPa SW 1 mph /  1.6 km/h 2 mph /  3.2 km/h 74 % 0 in /  0.0 mm
22:36 40.1 °F /  4.5 °C 31.1 °F /  -0.5 °C 30.5 in /  1032.1 hPa Calm     70 % 0 in /  0.0 mm
22:41 40.1 °F /  4.5 °C 31.1 °F /  -0.5 °C 30.5 in /  1032.1 hPa East 2.2 mph /  3.5 km/h 2.2 mph /  3.5 km/h 70 % 0 in /  0.0 mm
22:45 35.2 °F /  1.8 °C 27.9 °F /  -2.3 °C 30.4 in /  1030.7 hPa NE 1 mph /  1.6 km/h 2 mph /  3.2 km/h 74 % 0 in /  0.0 mm
22:46 39.9 °F /  4.4 °C 30.9 °F /  -0.6 °C 30.5 in /  1032.1 hPa ENE 1.6 mph /  2.6 km/h 1.6 mph /  2.6 km/h 70 % 0 in /  0.0 mm
22:51 39.7 °F /  4.3 °C 31.1 °F /  -0.5 °C 30.5 in /  1032.1 hPa East 2.3 mph /  3.7 km/h 2.3 mph /  3.7 km/h 71 % 0 in /  0.0 mm
22:55 35.1 °F /  1.7 °C 27.9 °F /  -2.3 °C 30.4 in /  1030.7 hPa NE 1 mph /  1.6 km/h 2 mph /  3.2 km/h 75 % 0 in /  0.0 mm
22:56 39.4 °F /  4.1 °C 30.4 °F /  -0.9 °C 30.5 in /  1032.1 hPa East 1.2 mph /  1.9 km/h   70 % 0 in /  0.0 mm
23:01 39.2 °F /  4.0 °C 30.2 °F /  -1.0 °C 30.5 in /  1032.1 hPa Calm     70 % 0 in /  0.0 mm
23:02 39.2 °F /  4.0 °C 30.2 °F /  -1.0 °C 30.5 in /  1032.1 hPa Calm     70 % 0 in /  0.0 mm
23:05 35.1 °F /  1.7 °C 27.9 °F /  -2.3 °C 30.4 in /  1030.7 hPa Calm     75 % 0 in /  0.0 mm
23:07 38.8 °F /  3.8 °C 29.8 °F /  -1.2 °C 30.5 in /  1032.1 hPa Calm     70 % 0 in /  0.0 mm
23:12 38.7 °F /  3.7 °C 29.7 °F /  -1.3 °C 30.5 in /  1032.1 hPa Calm     70 % 0 in /  0.0 mm
23:15 34.7 °F /  1.5 °C 27.7 °F /  -2.4 °C 30.4 in /  1030.7 hPa Calm     75 % 0 in /  0.0 mm
23:17 38.5 °F /  3.6 °C 29.5 °F /  -1.4 °C 30.5 in /  1032.1 hPa Calm     70 % 0 in /  0.0 mm
23:22 38.3 °F /  3.5 °C 29.5 °F /  -1.4 °C 30.5 in /  1032.1 hPa Calm     70 % 0 in /  0.0 mm
23:25 34.5 °F /  1.4 °C 27.3 °F /  -2.6 °C 30.4 in /  1030.0 hPa Calm     75 % 0 in /  0.0 mm
23:27 38.1 °F /  3.4 °C 29.5 °F /  -1.4 °C 30.5 in /  1032.1 hPa Calm     71 % 0 in /  0.0 mm
23:32 38.1 °F /  3.4 °C 29.5 °F /  -1.4 °C 30.5 in /  1032.7 hPa Calm     71 % 0 in /  0.0 mm
23:35 34.7 °F /  1.5 °C 27.7 °F /  -2.4 °C 30.4 in /  1030.7 hPa Calm     75 % 0 in /  0.0 mm
23:37 38.1 °F /  3.4 °C 29.5 °F /  -1.4 °C 30.5 in /  1032.7 hPa Calm     71 % 0 in /  0.0 mm
23:42 38.1 °F /  3.4 °C 29.5 °F /  -1.4 °C 30.5 in /  1032.7 hPa Calm     71 % 0 in /  0.0 mm
23:45 34.5 °F /  1.4 °C 27.3 °F /  -2.6 °C 30.4 in /  1030.7 hPa SSW 1 mph /  1.6 km/h 2 mph /  3.2 km/h 75 % 0 in /  0.0 mm
23:47 37.9 °F /  3.3 °C 29.7 °F /  -1.3 °C 30.5 in /  1032.1 hPa Calm     72 % 0 in /  0.0 mm
23:52 37.8 °F /  3.2 °C 29.1 °F /  -1.6 °C 30.5 in /  1032.1 hPa North 1.2 mph /  1.9 km/h   71 % 0 in /  0.0 mm
23:55 34.5 °F /  1.4 °C 27.3 °F /  -2.6 °C 30.4 in /  1030.7 hPa NW 1 mph /  1.6 km/h 2 mph /  3.2 km/h 75 % 0 in /  0.0 mm
23:57 37.8 °F /  3.2 °C 29.1 °F /  -1.6 °C 30.5 in /  1032.1 hPa NNE 2.3 mph /  3.7 km/h 2.3 mph /  3.7 km/h 71 % 0 in /  0.0 mm
Meteo Sesrovires
Elogis d' Weather Underground - 3.75 mb

Guio original per  Jim McMurry - jmcmurry@mwt.net Adaptat per a la plantilla per  Wim van der Kuil - Leuven-Template.eu

Trobareu la nostra informacio del temps tambe a:

Weather Underground

AWEKAS